Terminal Aerodrome Forecast
Issued by NWS

Home | Current Version | Previous Version | Text Only | Print | Product List | Glossary On
Versions: 1 2 3 4 5 6 7 8 9 10 11 12
000
FTUS44 KLZK 242330
TAFLLQ
TAF
KLLQ 242330Z 2500/2524 25003KT P6SM SKC
     FM251500 VRB03KT P6SM SCT250
     FM252200 VRB03KT P6SM SCT100=

USA.gov is the U.S. government's official web portal to all federal, state and local government web resources and services.